sensor_id;sensor_type;location;lat;lon;timestamp;P1;durP1;ratioP1;P2;durP2;ratioP2
43819;SDS011;67762;52.476;6.046;2023-04-30T00:01:56;1999.90;;;999.90;;
43819;SDS011;67762;52.476;6.046;2023-04-30T00:04:22;1999.90;;;999.90;;
43819;SDS011;67762;52.476;6.046;2023-04-30T00:06:48;1999.90;;;999.90;;
43819;SDS011;67762;52.476;6.046;2023-04-30T00:09:13;1999.90;;;999.90;;
43819;SDS011;67762;52.476;6.046;2023-04-30T00:11:39;1999.90;;;999.90;;
43819;SDS011;67762;52.476;6.046;2023-04-30T00:14:04;1999.90;;;999.90;;
43819;SDS011;67762;52.476;6.046;2023-04-30T00:16:30;1999.90;;;999.90;;
43819;SDS011;67762;52.476;6.046;2023-04-30T00:18:55;1999.90;;;999.90;;
43819;SDS011;67762;52.476;6.046;2023-04-30T00:21:21;1999.90;;;999.90;;
43819;SDS011;67762;52.476;6.046;2023-04-30T00:23:47;1999.90;;;999.90;;
43819;SDS011;67762;52.476;6.046;2023-04-30T00:26:12;1999.90;;;999.90;;
43819;SDS011;67762;52.476;6.046;2023-04-30T00:28:39;1999.90;;;999.90;;
43819;SDS011;67762;52.476;6.046;2023-04-30T00:31:05;1999.90;;;999.90;;
43819;SDS011;67762;52.476;6.046;2023-04-30T00:33:33;1999.90;;;999.90;;
43819;SDS011;67762;52.476;6.046;2023-04-30T00:35:59;1999.90;;;999.90;;
43819;SDS011;67762;52.476;6.046;2023-04-30T00:38:25;1999.90;;;999.90;;
43819;SDS011;67762;52.476;6.046;2023-04-30T00:40:51;1999.90;;;999.90;;
43819;SDS011;67762;52.476;6.046;2023-04-30T00:43:17;1999.90;;;999.90;;
43819;SDS011;67762;52.476;6.046;2023-04-30T00:45:42;1999.90;;;999.90;;
43819;SDS011;67762;52.476;6.046;2023-04-30T00:48:09;1999.90;;;999.90;;
43819;SDS011;67762;52.476;6.046;2023-04-30T00:50:35;1999.90;;;999.90;;
43819;SDS011;67762;52.476;6.046;2023-04-30T00:53:01;1999.90;;;999.90;;
43819;SDS011;67762;52.476;6.046;2023-04-30T00:55:27;1999.90;;;999.90;;
43819;SDS011;67762;52.476;6.046;2023-04-30T00:57:53;1999.90;;;999.90;;
43819;SDS011;67762;52.476;6.046;2023-04-30T01:00:19;1999.90;;;999.90;;
43819;SDS011;67762;52.476;6.046;2023-04-30T01:02:45;1999.90;;;999.90;;
43819;SDS011;67762;52.476;6.046;2023-04-30T01:05:11;1999.90;;;999.90;;
43819;SDS011;67762;52.476;6.046;2023-04-30T01:07:37;1999.90;;;999.90;;
43819;SDS011;67762;52.476;6.046;2023-04-30T01:10:05;1999.90;;;999.90;;
43819;SDS011;67762;52.476;6.046;2023-04-30T01:12:41;1999.90;;;999.90;;
43819;SDS011;67762;52.476;6.046;2023-04-30T01:17:48;1999.90;;;999.90;;
43819;SDS011;67762;52.476;6.046;2023-04-30T01:20:38;1999.90;;;999.90;;
43819;SDS011;67762;52.476;6.046;2023-04-30T01:23:40;1999.90;;;999.90;;
43819;SDS011;67762;52.476;6.046;2023-04-30T01:26:14;1999.90;;;999.90;;
43819;SDS011;67762;52.476;6.046;2023-04-30T01:28:54;1999.90;;;999.90;;
43819;SDS011;67762;52.476;6.046;2023-04-30T01:31:22;1999.90;;;999.90;;
43819;SDS011;67762;52.476;6.046;2023-04-30T01:33:48;1999.90;;;999.90;;
43819;SDS011;67762;52.476;6.046;2023-04-30T01:39:08;1999.90;;;999.90;;
43819;SDS011;67762;52.476;6.046;2023-04-30T01:55:26;1999.90;;;999.90;;
43819;SDS011;67762;52.476;6.046;2023-04-30T01:57:59;1999.90;;;999.90;;
43819;SDS011;67762;52.476;6.046;2023-04-30T02:00:27;1999.90;;;999.90;;
43819;SDS011;67762;52.476;6.046;2023-04-30T02:02:55;1999.90;;;999.90;;
43819;SDS011;67762;52.476;6.046;2023-04-30T02:05:21;1999.90;;;999.90;;
43819;SDS011;67762;52.476;6.046;2023-04-30T02:07:47;1999.90;;;999.90;;
43819;SDS011;67762;52.476;6.046;2023-04-30T02:10:15;1999.90;;;999.90;;
43819;SDS011;67762;52.476;6.046;2023-04-30T02:12:42;1999.90;;;999.90;;
43819;SDS011;67762;52.476;6.046;2023-04-30T02:15:08;1999.90;;;999.90;;
43819;SDS011;67762;52.476;6.046;2023-04-30T02:17:34;1999.90;;;999.90;;
43819;SDS011;67762;52.476;6.046;2023-04-30T02:20:00;1999.90;;;999.90;;
43819;SDS011;67762;52.476;6.046;2023-04-30T02:22:26;1999.90;;;999.90;;
43819;SDS011;67762;52.476;6.046;2023-04-30T02:24:52;1999.90;;;999.90;;
43819;SDS011;67762;52.476;6.046;2023-04-30T02:27:20;1999.90;;;999.90;;
43819;SDS011;67762;52.476;6.046;2023-04-30T02:29:49;1999.90;;;999.90;;
43819;SDS011;67762;52.476;6.046;2023-04-30T02:32:14;1999.90;;;999.90;;
43819;SDS011;67762;52.476;6.046;2023-04-30T02:34:40;1999.90;;;999.90;;
43819;SDS011;67762;52.476;6.046;2023-04-30T02:37:06;1999.90;;;999.90;;
43819;SDS011;67762;52.476;6.046;2023-04-30T02:39:32;1999.90;;;999.90;;
43819;SDS011;67762;52.476;6.046;2023-04-30T02:41:58;1999.90;;;999.90;;
43819;SDS011;67762;52.476;6.046;2023-04-30T02:44:24;1999.90;;;999.90;;
43819;SDS011;67762;52.476;6.046;2023-04-30T02:46:50;1999.90;;;999.90;;
43819;SDS011;67762;52.476;6.046;2023-04-30T02:49:16;1999.90;;;999.90;;
43819;SDS011;67762;52.476;6.046;2023-04-30T02:51:42;1999.90;;;999.90;;
43819;SDS011;67762;52.476;6.046;2023-04-30T02:54:08;1999.90;;;999.90;;
43819;SDS011;67762;52.476;6.046;2023-04-30T02:56:33;1999.90;;;999.90;;
43819;SDS011;67762;52.476;6.046;2023-04-30T02:58:59;1999.90;;;999.90;;
43819;SDS011;67762;52.476;6.046;2023-04-30T03:01:25;1999.90;;;999.90;;
43819;SDS011;67762;52.476;6.046;2023-04-30T03:03:51;1999.90;;;999.90;;
43819;SDS011;67762;52.476;6.046;2023-04-30T03:06:17;1999.90;;;999.90;;
43819;SDS011;67762;52.476;6.046;2023-04-30T03:08:43;1999.90;;;999.90;;
43819;SDS011;67762;52.476;6.046;2023-04-30T03:11:08;1999.90;;;999.90;;
43819;SDS011;67762;52.476;6.046;2023-04-30T03:13:34;1999.90;;;999.90;;
43819;SDS011;67762;52.476;6.046;2023-04-30T03:16:01;1999.90;;;999.90;;
43819;SDS011;67762;52.476;6.046;2023-04-30T03:18:29;1999.90;;;999.90;;
43819;SDS011;67762;52.476;6.046;2023-04-30T03:20:55;1999.90;;;999.90;;
43819;SDS011;67762;52.476;6.046;2023-04-30T03:23:21;1999.90;;;999.90;;
43819;SDS011;67762;52.476;6.046;2023-04-30T03:25:47;1999.90;;;999.90;;
43819;SDS011;67762;52.476;6.046;2023-04-30T03:28:13;1999.90;;;999.90;;
43819;SDS011;67762;52.476;6.046;2023-04-30T03:30:39;1999.90;;;999.90;;
43819;SDS011;67762;52.476;6.046;2023-04-30T03:33:05;1999.90;;;999.90;;
43819;SDS011;67762;52.476;6.046;2023-04-30T03:35:31;1999.90;;;999.90;;
43819;SDS011;67762;52.476;6.046;2023-04-30T03:37:58;1999.90;;;999.90;;
43819;SDS011;67762;52.476;6.046;2023-04-30T03:40:24;1999.90;;;999.90;;
43819;SDS011;67762;52.476;6.046;2023-04-30T03:42:49;1999.90;;;999.90;;
43819;SDS011;67762;52.476;6.046;2023-04-30T03:45:15;1999.90;;;999.90;;
43819;SDS011;67762;52.476;6.046;2023-04-30T03:47:41;1999.90;;;999.90;;
43819;SDS011;67762;52.476;6.046;2023-04-30T03:50:08;1999.90;;;999.90;;
43819;SDS011;67762;52.476;6.046;2023-04-30T03:52:35;1999.90;;;999.90;;
43819;SDS011;67762;52.476;6.046;2023-04-30T03:55:03;1999.90;;;999.90;;
43819;SDS011;67762;52.476;6.046;2023-04-30T03:57:30;1999.90;;;999.90;;
43819;SDS011;67762;52.476;6.046;2023-04-30T03:59:57;1999.90;;;999.90;;
43819;SDS011;67762;52.476;6.046;2023-04-30T04:02:23;1999.90;;;999.90;;
43819;SDS011;67762;52.476;6.046;2023-04-30T04:04:50;1999.90;;;999.90;;
43819;SDS011;67762;52.476;6.046;2023-04-30T04:07:16;1999.90;;;999.90;;
43819;SDS011;67762;52.476;6.046;2023-04-30T04:09:42;1999.90;;;999.90;;
43819;SDS011;67762;52.476;6.046;2023-04-30T04:12:07;1999.90;;;999.90;;
43819;SDS011;67762;52.476;6.046;2023-04-30T04:14:34;1999.90;;;999.90;;
43819;SDS011;67762;52.476;6.046;2023-04-30T04:17:00;1999.90;;;999.90;;
43819;SDS011;67762;52.476;6.046;2023-04-30T04:19:26;1999.90;;;999.90;;
43819;SDS011;67762;52.476;6.046;2023-04-30T04:21:52;1999.90;;;999.90;;
43819;SDS011;67762;52.476;6.046;2023-04-30T04:24:18;1999.90;;;999.90;;
43819;SDS011;67762;52.476;6.046;2023-04-30T04:26:43;1999.90;;;999.90;;
43819;SDS011;67762;52.476;6.046;2023-04-30T04:29:09;1999.90;;;999.90;;
43819;SDS011;67762;52.476;6.046;2023-04-30T04:31:37;1999.90;;;999.90;;
43819;SDS011;67762;52.476;6.046;2023-04-30T04:34:05;1999.90;;;999.90;;
43819;SDS011;67762;52.476;6.046;2023-04-30T04:36:31;1999.90;;;999.90;;
43819;SDS011;67762;52.476;6.046;2023-04-30T04:38:58;1999.90;;;999.90;;
43819;SDS011;67762;52.476;6.046;2023-04-30T04:41:28;1999.90;;;999.90;;
43819;SDS011;67762;52.476;6.046;2023-04-30T04:43:57;1999.90;;;999.90;;
43819;SDS011;67762;52.476;6.046;2023-04-30T04:46:23;1999.90;;;999.90;;
43819;SDS011;67762;52.476;6.046;2023-04-30T04:48:53;1999.90;;;999.90;;
43819;SDS011;67762;52.476;6.046;2023-04-30T04:51:19;1999.90;;;999.90;;
43819;SDS011;67762;52.476;6.046;2023-04-30T04:53:45;1999.90;;;999.90;;
43819;SDS011;67762;52.476;6.046;2023-04-30T04:56:11;1999.90;;;999.90;;
43819;SDS011;67762;52.476;6.046;2023-04-30T04:58:37;1999.90;;;999.90;;
43819;SDS011;67762;52.476;6.046;2023-04-30T05:01:03;1999.90;;;999.90;;
43819;SDS011;67762;52.476;6.046;2023-04-30T05:03:32;1999.90;;;999.90;;
43819;SDS011;67762;52.476;6.046;2023-04-30T05:06:01;1999.90;;;999.90;;
43819;SDS011;67762;52.476;6.046;2023-04-30T05:08:30;1999.90;;;999.90;;
43819;SDS011;67762;52.476;6.046;2023-04-30T05:10:56;1999.90;;;999.90;;
43819;SDS011;67762;52.476;6.046;2023-04-30T05:13:22;1999.90;;;999.90;;
43819;SDS011;67762;52.476;6.046;2023-04-30T05:15:49;1999.90;;;999.90;;
43819;SDS011;67762;52.476;6.046;2023-04-30T05:18:16;1999.90;;;999.90;;
43819;SDS011;67762;52.476;6.046;2023-04-30T05:20:41;1999.90;;;999.90;;
43819;SDS011;67762;52.476;6.046;2023-04-30T05:23:07;1999.90;;;999.90;;
43819;SDS011;67762;52.476;6.046;2023-04-30T05:25:34;1999.90;;;999.90;;
43819;SDS011;67762;52.476;6.046;2023-04-30T05:28:00;1999.90;;;999.90;;
43819;SDS011;67762;52.476;6.046;2023-04-30T05:30:26;1999.90;;;999.90;;
43819;SDS011;67762;52.476;6.046;2023-04-30T05:32:52;1999.90;;;999.90;;
43819;SDS011;67762;52.476;6.046;2023-04-30T05:35:18;1999.90;;;999.90;;
43819;SDS011;67762;52.476;6.046;2023-04-30T05:37:44;1999.90;;;999.90;;
43819;SDS011;67762;52.476;6.046;2023-04-30T05:40:10;1999.90;;;999.90;;
43819;SDS011;67762;52.476;6.046;2023-04-30T05:42:36;1999.90;;;999.90;;
43819;SDS011;67762;52.476;6.046;2023-04-30T05:45:05;1999.90;;;999.90;;
43819;SDS011;67762;52.476;6.046;2023-04-30T05:47:31;1999.90;;;999.90;;
43819;SDS011;67762;52.476;6.046;2023-04-30T05:49:57;1999.90;;;999.90;;
43819;SDS011;67762;52.476;6.046;2023-04-30T05:52:23;1999.90;;;999.90;;
43819;SDS011;67762;52.476;6.046;2023-04-30T05:54:48;1999.90;;;999.90;;
43819;SDS011;67762;52.476;6.046;2023-04-30T05:57:14;1999.90;;;999.90;;
43819;SDS011;67762;52.476;6.046;2023-04-30T05:59:40;1999.90;;;999.90;;
43819;SDS011;67762;52.476;6.046;2023-04-30T06:02:06;1999.90;;;999.90;;
43819;SDS011;67762;52.476;6.046;2023-04-30T06:04:32;1999.90;;;999.90;;
43819;SDS011;67762;52.476;6.046;2023-04-30T06:06:58;1999.90;;;999.90;;
43819;SDS011;67762;52.476;6.046;2023-04-30T06:09:23;1999.90;;;999.90;;
43819;SDS011;67762;52.476;6.046;2023-04-30T06:11:49;1999.90;;;999.90;;
43819;SDS011;67762;52.476;6.046;2023-04-30T06:14:16;1999.90;;;999.90;;
43819;SDS011;67762;52.476;6.046;2023-04-30T06:16:45;1999.90;;;999.90;;
43819;SDS011;67762;52.476;6.046;2023-04-30T06:19:11;1999.90;;;999.90;;
43819;SDS011;67762;52.476;6.046;2023-04-30T06:21:37;1999.90;;;999.90;;
43819;SDS011;67762;52.476;6.046;2023-04-30T06:24:03;1999.90;;;999.90;;
43819;SDS011;67762;52.476;6.046;2023-04-30T06:26:29;1999.90;;;999.90;;
43819;SDS011;67762;52.476;6.046;2023-04-30T06:28:55;1999.90;;;999.90;;
43819;SDS011;67762;52.476;6.046;2023-04-30T06:31:21;1999.90;;;999.90;;
43819;SDS011;67762;52.476;6.046;2023-04-30T06:33:47;1999.90;;;999.90;;
43819;SDS011;67762;52.476;6.046;2023-04-30T06:36:13;1999.90;;;999.90;;
43819;SDS011;67762;52.476;6.046;2023-04-30T06:38:39;1999.90;;;999.90;;
43819;SDS011;67762;52.476;6.046;2023-04-30T06:41:05;1999.90;;;999.90;;
43819;SDS011;67762;52.476;6.046;2023-04-30T06:43:31;1999.90;;;999.90;;
43819;SDS011;67762;52.476;6.046;2023-04-30T06:45:56;1999.90;;;999.90;;
43819;SDS011;67762;52.476;6.046;2023-04-30T06:48:22;1999.90;;;999.90;;
43819;SDS011;67762;52.476;6.046;2023-04-30T06:50:48;1999.90;;;999.90;;
43819;SDS011;67762;52.476;6.046;2023-04-30T06:53:13;1999.90;;;999.90;;
43819;SDS011;67762;52.476;6.046;2023-04-30T06:55:40;1999.90;;;999.90;;
43819;SDS011;67762;52.476;6.046;2023-04-30T06:58:06;1999.90;;;999.90;;
43819;SDS011;67762;52.476;6.046;2023-04-30T07:00:32;1999.90;;;999.90;;
43819;SDS011;67762;52.476;6.046;2023-04-30T07:02:58;1999.90;;;999.90;;
43819;SDS011;67762;52.476;6.046;2023-04-30T07:05:31;1999.90;;;999.90;;
43819;SDS011;67762;52.476;6.046;2023-04-30T07:07:59;1999.90;;;999.90;;
43819;SDS011;67762;52.476;6.046;2023-04-30T07:10:26;1999.90;;;999.90;;
43819;SDS011;67762;52.476;6.046;2023-04-30T07:12:51;1999.90;;;999.90;;
43819;SDS011;67762;52.476;6.046;2023-04-30T07:15:17;1999.90;;;999.90;;
43819;SDS011;67762;52.476;6.046;2023-04-30T07:17:43;1999.90;;;999.90;;
43819;SDS011;67762;52.476;6.046;2023-04-30T07:20:08;1999.90;;;999.90;;
43819;SDS011;67762;52.476;6.046;2023-04-30T07:22:35;1999.90;;;999.90;;
43819;SDS011;67762;52.476;6.046;2023-04-30T07:25:00;1999.90;;;999.90;;
43819;SDS011;67762;52.476;6.046;2023-04-30T07:27:26;1999.90;;;999.90;;
43819;SDS011;67762;52.476;6.046;2023-04-30T07:29:52;1999.90;;;999.90;;
43819;SDS011;67762;52.476;6.046;2023-04-30T07:32:18;1999.90;;;999.90;;
43819;SDS011;67762;52.476;6.046;2023-04-30T07:34:44;1999.90;;;999.90;;
43819;SDS011;67762;52.476;6.046;2023-04-30T07:37:10;1999.90;;;999.90;;
43819;SDS011;67762;52.476;6.046;2023-04-30T07:39:36;1999.90;;;999.90;;
43819;SDS011;67762;52.476;6.046;2023-04-30T07:42:02;1999.90;;;999.90;;
43819;SDS011;67762;52.476;6.046;2023-04-30T07:44:28;1999.90;;;999.90;;
43819;SDS011;67762;52.476;6.046;2023-04-30T07:46:55;1999.90;;;999.90;;
43819;SDS011;67762;52.476;6.046;2023-04-30T07:49:20;1999.90;;;999.90;;
43819;SDS011;67762;52.476;6.046;2023-04-30T07:51:46;1999.90;;;999.90;;
43819;SDS011;67762;52.476;6.046;2023-04-30T07:54:12;1999.90;;;999.90;;
43819;SDS011;67762;52.476;6.046;2023-04-30T07:56:39;1999.90;;;999.90;;
43819;SDS011;67762;52.476;6.046;2023-04-30T07:59:04;1999.90;;;999.90;;
43819;SDS011;67762;52.476;6.046;2023-04-30T08:01:30;1999.90;;;999.90;;
43819;SDS011;67762;52.476;6.046;2023-04-30T08:03:56;1999.90;;;999.90;;
43819;SDS011;67762;52.476;6.046;2023-04-30T08:06:22;1999.90;;;999.90;;
43819;SDS011;67762;52.476;6.046;2023-04-30T08:08:48;1999.90;;;999.90;;
43819;SDS011;67762;52.476;6.046;2023-04-30T08:11:14;1999.90;;;999.90;;
43819;SDS011;67762;52.476;6.046;2023-04-30T08:13:40;1999.90;;;999.90;;
43819;SDS011;67762;52.476;6.046;2023-04-30T08:16:06;1999.90;;;999.90;;
43819;SDS011;67762;52.476;6.046;2023-04-30T08:18:32;1999.90;;;999.90;;
43819;SDS011;67762;52.476;6.046;2023-04-30T08:20:59;1999.90;;;999.90;;
43819;SDS011;67762;52.476;6.046;2023-04-30T08:23:26;1999.90;;;999.90;;
43819;SDS011;67762;52.476;6.046;2023-04-30T08:25:52;1999.90;;;999.90;;
43819;SDS011;67762;52.476;6.046;2023-04-30T08:28:17;1999.90;;;999.90;;
43819;SDS011;67762;52.476;6.046;2023-04-30T08:30:43;1999.90;;;999.90;;
43819;SDS011;67762;52.476;6.046;2023-04-30T08:33:09;1999.90;;;999.90;;
43819;SDS011;67762;52.476;6.046;2023-04-30T08:35:36;1999.90;;;999.90;;
43819;SDS011;67762;52.476;6.046;2023-04-30T08:38:02;1999.90;;;999.90;;
43819;SDS011;67762;52.476;6.046;2023-04-30T08:40:29;1999.90;;;999.90;;
43819;SDS011;67762;52.476;6.046;2023-04-30T08:43:12;1999.90;;;999.90;;
43819;SDS011;67762;52.476;6.046;2023-04-30T08:45:40;1999.90;;;999.90;;
43819;SDS011;67762;52.476;6.046;2023-04-30T08:48:10;1999.90;;;999.90;;
43819;SDS011;67762;52.476;6.046;2023-04-30T08:50:37;1999.90;;;999.90;;
43819;SDS011;67762;52.476;6.046;2023-04-30T08:53:07;1999.90;;;999.90;;
43819;SDS011;67762;52.476;6.046;2023-04-30T08:55:35;1999.90;;;999.90;;
43819;SDS011;67762;52.476;6.046;2023-04-30T08:58:00;1999.90;;;999.90;;
43819;SDS011;67762;52.476;6.046;2023-04-30T09:00:26;1999.90;;;999.90;;
43819;SDS011;67762;52.476;6.046;2023-04-30T09:02:52;1999.90;;;999.90;;
43819;SDS011;67762;52.476;6.046;2023-04-30T09:05:18;1999.90;;;999.90;;
43819;SDS011;67762;52.476;6.046;2023-04-30T09:07:44;1999.90;;;999.90;;
43819;SDS011;67762;52.476;6.046;2023-04-30T09:10:18;1999.90;;;999.90;;
43819;SDS011;67762;52.476;6.046;2023-04-30T09:12:58;1999.90;;;999.90;;
43819;SDS011;67762;52.476;6.046;2023-04-30T09:15:32;1999.90;;;999.90;;
43819;SDS011;67762;52.476;6.046;2023-04-30T09:18:12;1999.90;;;999.90;;
43819;SDS011;67762;52.476;6.046;2023-04-30T09:20:57;1999.90;;;999.90;;
43819;SDS011;67762;52.476;6.046;2023-04-30T09:23:27;1999.90;;;999.90;;
43819;SDS011;67762;52.476;6.046;2023-04-30T09:25:54;165.85;;;157.10;;
43819;SDS011;67762;52.476;6.046;2023-04-30T09:28:20;1059.32;;;556.25;;
43819;SDS011;67762;52.476;6.046;2023-04-30T09:30:48;110.75;;;104.82;;
43819;SDS011;67762;52.476;6.046;2023-04-30T09:33:15;1059.90;;;556.67;;
43819;SDS011;67762;52.476;6.046;2023-04-30T09:35:41;1999.90;;;999.90;;
43819;SDS011;67762;52.476;6.046;2023-04-30T09:38:07;245.60;;;231.63;;
43819;SDS011;67762;52.476;6.046;2023-04-30T09:40:49;1070.57;;;566.85;;
43819;SDS011;67762;52.476;6.046;2023-04-30T09:43:14;1999.90;;;999.90;;
43819;SDS011;67762;52.476;6.046;2023-04-30T09:45:47;578.08;;;324.00;;
43819;SDS011;67762;52.476;6.046;2023-04-30T09:48:16;622.15;;;365.50;;
43819;SDS011;67762;52.476;6.046;2023-04-30T09:50:42;1094.40;;;588.75;;
43819;SDS011;67762;52.476;6.046;2023-04-30T09:53:09;215.20;;;203.02;;
43819;SDS011;67762;52.476;6.046;2023-04-30T09:55:46;202.90;;;191.70;;
43819;SDS011;67762;52.476;6.046;2023-04-30T09:58:14;1999.90;;;999.90;;
43819;SDS011;67762;52.476;6.046;2023-04-30T10:00:42;108.03;;;102.07;;
43819;SDS011;67762;52.476;6.046;2023-04-30T10:03:09;170.43;;;160.95;;
43819;SDS011;67762;52.476;6.046;2023-04-30T10:05:37;208.48;;;195.82;;
43819;SDS011;67762;52.476;6.046;2023-04-30T10:08:06;78.00;;;73.63;;
43819;SDS011;67762;52.476;6.046;2023-04-30T10:10:37;201.40;;;191.00;;
43819;SDS011;67762;52.476;6.046;2023-04-30T10:13:09;115.13;;;108.93;;
43819;SDS011;67762;52.476;6.046;2023-04-30T10:15:40;78.00;;;73.50;;
43819;SDS011;67762;52.476;6.046;2023-04-30T10:18:13;75.75;;;71.43;;
43819;SDS011;67762;52.476;6.046;2023-04-30T10:20:43;57.63;;;54.53;;
43819;SDS011;67762;52.476;6.046;2023-04-30T10:23:12;74.68;;;70.65;;
43819;SDS011;67762;52.476;6.046;2023-04-30T10:25:38;56.38;;;53.25;;
43819;SDS011;67762;52.476;6.046;2023-04-30T10:28:07;66.07;;;62.47;;
43819;SDS011;67762;52.476;6.046;2023-04-30T10:30:36;70.85;;;67.22;;
43819;SDS011;67762;52.476;6.046;2023-04-30T10:33:09;80.95;;;76.68;;
43819;SDS011;67762;52.476;6.046;2023-04-30T10:35:52;96.75;;;91.60;;
43819;SDS011;67762;52.476;6.046;2023-04-30T10:38:33;80.88;;;76.40;;
43819;SDS011;67762;52.476;6.046;2023-04-30T10:41:01;83.38;;;78.55;;
43819;SDS011;67762;52.476;6.046;2023-04-30T10:43:30;74.35;;;70.22;;
43819;SDS011;67762;52.476;6.046;2023-04-30T10:45:57;108.32;;;102.13;;
43819;SDS011;67762;52.476;6.046;2023-04-30T10:48:23;83.68;;;78.88;;
43819;SDS011;67762;52.476;6.046;2023-04-30T10:50:50;75.40;;;71.45;;
43819;SDS011;67762;52.476;6.046;2023-04-30T10:53:17;74.28;;;70.20;;
43819;SDS011;67762;52.476;6.046;2023-04-30T10:55:52;75.40;;;71.32;;
43819;SDS011;67762;52.476;6.046;2023-04-30T10:58:36;73.78;;;69.68;;
43819;SDS011;67762;52.476;6.046;2023-04-30T11:01:13;77.05;;;72.68;;
43819;SDS011;67762;52.476;6.046;2023-04-30T11:03:40;66.05;;;62.55;;
43819;SDS011;67762;52.476;6.046;2023-04-30T11:06:08;127.15;;;120.53;;
43819;SDS011;67762;52.476;6.046;2023-04-30T11:08:43;78.78;;;74.35;;
43819;SDS011;67762;52.476;6.046;2023-04-30T11:11:17;82.10;;;77.63;;
43819;SDS011;67762;52.476;6.046;2023-04-30T11:14:00;82.80;;;78.35;;
43819;SDS011;67762;52.476;6.046;2023-04-30T11:16:33;99.28;;;93.95;;
43819;SDS011;67762;52.476;6.046;2023-04-30T11:19:10;76.10;;;71.90;;
43819;SDS011;67762;52.476;6.046;2023-04-30T11:27:31;110.00;;;104.25;;
43819;SDS011;67762;52.476;6.046;2023-04-30T11:30:02;87.45;;;82.82;;
43819;SDS011;67762;52.476;6.046;2023-04-30T11:32:48;151.48;;;143.30;;
43819;SDS011;67762;52.476;6.046;2023-04-30T11:35:25;98.35;;;93.15;;
43819;SDS011;67762;52.476;6.046;2023-04-30T11:37:57;90.65;;;85.93;;
43819;SDS011;67762;52.476;6.046;2023-04-30T11:40:27;89.68;;;84.70;;
43819;SDS011;67762;52.476;6.046;2023-04-30T11:42:57;124.38;;;117.78;;
43819;SDS011;67762;52.476;6.046;2023-04-30T11:45:37;78.68;;;74.47;;
43819;SDS011;67762;52.476;6.046;2023-04-30T11:48:04;98.57;;;93.32;;
43819;SDS011;67762;52.476;6.046;2023-04-30T11:50:32;107.40;;;101.63;;
43819;SDS011;67762;52.476;6.046;2023-04-30T11:53:15;97.90;;;92.63;;
43819;SDS011;67762;52.476;6.046;2023-04-30T11:55:53;94.75;;;89.63;;
43819;SDS011;67762;52.476;6.046;2023-04-30T11:58:32;100.55;;;94.95;;
43819;SDS011;67762;52.476;6.046;2023-04-30T12:01:16;138.53;;;130.97;;
43819;SDS011;67762;52.476;6.046;2023-04-30T12:03:48;182.52;;;172.55;;
43819;SDS011;67762;52.476;6.046;2023-04-30T12:06:22;97.18;;;91.65;;
43819;SDS011;67762;52.476;6.046;2023-04-30T12:08:51;78.80;;;74.55;;
43819;SDS011;67762;52.476;6.046;2023-04-30T12:11:23;61.97;;;58.70;;
43819;SDS011;67762;52.476;6.046;2023-04-30T12:13:54;85.10;;;80.55;;
43819;SDS011;67762;52.476;6.046;2023-04-30T12:16:30;76.35;;;72.15;;
43819;SDS011;67762;52.476;6.046;2023-04-30T12:19:10;71.25;;;67.25;;
43819;SDS011;67762;52.476;6.046;2023-04-30T12:21:37;94.22;;;89.20;;
43819;SDS011;67762;52.476;6.046;2023-04-30T12:24:05;91.35;;;86.45;;
43819;SDS011;67762;52.476;6.046;2023-04-30T12:26:38;109.43;;;103.75;;
43819;SDS011;67762;52.476;6.046;2023-04-30T12:29:05;51.78;;;48.88;;
43819;SDS011;67762;52.476;6.046;2023-04-30T12:31:37;66.53;;;62.63;;
43819;SDS011;67762;52.476;6.046;2023-04-30T12:34:06;62.53;;;59.17;;
43819;SDS011;67762;52.476;6.046;2023-04-30T12:36:33;56.60;;;53.20;;
43819;SDS011;67762;52.476;6.046;2023-04-30T12:39:01;54.45;;;50.92;;
43819;SDS011;67762;52.476;6.046;2023-04-30T12:41:30;56.05;;;52.53;;
43819;SDS011;67762;52.476;6.046;2023-04-30T12:46:47;74.97;;;70.80;;
43819;SDS011;67762;52.476;6.046;2023-04-30T12:49:23;67.53;;;63.83;;
43819;SDS011;67762;52.476;6.046;2023-04-30T12:52:00;56.42;;;53.28;;
43819;SDS011;67762;52.476;6.046;2023-04-30T12:54:26;78.82;;;74.68;;
43819;SDS011;67762;52.476;6.046;2023-04-30T12:56:56;75.68;;;71.70;;
43819;SDS011;67762;52.476;6.046;2023-04-30T12:59:24;78.65;;;74.45;;
43819;SDS011;67762;52.476;6.046;2023-04-30T13:01:49;69.22;;;65.40;;
43819;SDS011;67762;52.476;6.046;2023-04-30T13:04:15;64.32;;;60.65;;
43819;SDS011;67762;52.476;6.046;2023-04-30T13:06:41;72.28;;;68.20;;
43819;SDS011;67762;52.476;6.046;2023-04-30T13:09:07;60.00;;;56.50;;
43819;SDS011;67762;52.476;6.046;2023-04-30T13:11:33;55.53;;;52.42;;
43819;SDS011;67762;52.476;6.046;2023-04-30T13:13:59;60.83;;;57.35;;
43819;SDS011;67762;52.476;6.046;2023-04-30T13:16:24;59.00;;;55.60;;
43819;SDS011;67762;52.476;6.046;2023-04-30T13:18:50;53.40;;;50.40;;
43819;SDS011;67762;52.476;6.046;2023-04-30T13:21:15;51.30;;;48.47;;
43819;SDS011;67762;52.476;6.046;2023-04-30T13:23:41;65.50;;;61.78;;
43819;SDS011;67762;52.476;6.046;2023-04-30T13:26:07;90.50;;;85.47;;
43819;SDS011;67762;52.476;6.046;2023-04-30T13:28:33;85.70;;;80.95;;
43819;SDS011;67762;52.476;6.046;2023-04-30T13:30:59;118.72;;;112.28;;
43819;SDS011;67762;52.476;6.046;2023-04-30T13:33:26;66.65;;;62.90;;
43819;SDS011;67762;52.476;6.046;2023-04-30T13:35:52;58.17;;;54.78;;
43819;SDS011;67762;52.476;6.046;2023-04-30T13:38:18;85.10;;;80.60;;
43819;SDS011;67762;52.476;6.046;2023-04-30T13:40:44;76.55;;;72.38;;
43819;SDS011;67762;52.476;6.046;2023-04-30T13:43:09;82.68;;;78.22;;
43819;SDS011;67762;52.476;6.046;2023-04-30T13:45:35;104.60;;;99.30;;
43819;SDS011;67762;52.476;6.046;2023-04-30T13:48:01;90.00;;;85.18;;
43819;SDS011;67762;52.476;6.046;2023-04-30T13:50:27;64.45;;;60.92;;
43819;SDS011;67762;52.476;6.046;2023-04-30T13:52:53;66.07;;;62.53;;
43819;SDS011;67762;52.476;6.046;2023-04-30T13:55:19;50.22;;;47.47;;
43819;SDS011;67762;52.476;6.046;2023-04-30T13:57:44;68.22;;;64.60;;
43819;SDS011;67762;52.476;6.046;2023-04-30T14:00:10;74.78;;;70.90;;
43819;SDS011;67762;52.476;6.046;2023-04-30T14:02:36;65.93;;;62.30;;
43819;SDS011;67762;52.476;6.046;2023-04-30T14:05:02;50.90;;;48.13;;
43819;SDS011;67762;52.476;6.046;2023-04-30T14:07:29;58.50;;;55.17;;
43819;SDS011;67762;52.476;6.046;2023-04-30T14:09:57;56.83;;;53.72;;
43819;SDS011;67762;52.476;6.046;2023-04-30T14:12:23;68.50;;;64.63;;
43819;SDS011;67762;52.476;6.046;2023-04-30T14:14:49;71.85;;;68.05;;
43819;SDS011;67762;52.476;6.046;2023-04-30T14:17:14;72.13;;;68.20;;
43819;SDS011;67762;52.476;6.046;2023-04-30T14:19:40;79.78;;;75.60;;
43819;SDS011;67762;52.476;6.046;2023-04-30T14:22:06;63.58;;;60.17;;
43819;SDS011;67762;52.476;6.046;2023-04-30T14:24:32;57.25;;;54.17;;
43819;SDS011;67762;52.476;6.046;2023-04-30T14:26:58;39.50;;;37.40;;